Time;durP1;ratioP1;P1;durP2;ratioP2;P2;SDS_P1;SDS_P2;PMS_P1;PMS_P2;Temp;Humidity;BMP_temperature;BMP_pressure;BME280_temperature;BME280_humidity;BME280_pressure;Samples;Min_cycle;Max_cycle;Signal;HPM_P1;HPM_P2
2022/01/26 00:00:06;;;;;;;83.50;37.42;;;;;;;3.32;71.11;103454.69;5066110;28;20047;-56
2022/01/26 00:08:00;;;;;;;80.60;37.85;;;;;;;3.27;71.70;103467.53;5047457;28;20470;-57
2022/01/26 00:10:25;;;;;;;87.18;42.53;;;;;;;3.27;71.40;103458.00;5047800;28;20025;-57
2022/01/26 00:12:50;;;;;;;72.10;33.88;;;;;;;3.24;71.77;103452.69;5047268;28;20534;-55
2022/01/26 00:15:16;;;;;;;80.53;37.05;;;;;;;3.28;71.37;103459.78;5047294;28;20029;-56
2022/01/26 00:17:41;;;;;;;74.68;32.90;;;;;;;3.30;71.24;103457.22;5046973;28;20025;-55
2022/01/26 00:20:17;;;;;;;79.88;37.92;;;;;;;3.33;71.51;103453.84;5046838;28;20017;-57
2022/01/26 00:25:32;;;;;;;77.50;36.22;;;;;;;3.23;71.36;103437.88;5067913;28;20037;-57
2022/01/26 00:38:54;;;;;;;78.47;36.95;;;;;;;3.21;71.82;103423.88;5057120;28;20451;-57
2022/01/26 00:41:32;;;;;;;91.30;41.67;;;;;;;3.20;72.65;103419.50;5047446;28;20021;-56
2022/01/26 00:43:58;;;;;;;80.07;33.78;;;;;;;3.28;71.82;103422.38;5045888;28;20421;-57
2022/01/26 00:46:24;;;;;;;86.47;40.25;;;;;;;3.28;71.40;103428.50;5046057;28;20043;-55
2022/01/26 00:48:50;;;;;;;75.40;35.13;;;;;;;3.27;71.47;103421.53;5045406;28;20040;-55
2022/01/26 00:51:18;;;;;;;82.82;37.22;;;;;;;3.37;71.08;103427.09;5027827;28;20506;-57
2022/01/26 00:53:47;;;;;;;77.87;36.07;;;;;;;3.35;71.04;103426.13;5028084;28;20403;-57
2022/01/26 00:56:13;;;;;;;81.82;38.10;;;;;;;3.37;71.12;103417.53;5046459;28;20040;-56
2022/01/26 00:58:39;;;;;;;90.30;43.15;;;;;;;3.30;71.70;103412.94;5047162;28;20036;-57
2022/01/26 01:01:05;;;;;;;83.30;38.67;;;;;;;3.34;71.72;103414.81;5046186;28;20328;-58
2022/01/26 01:03:33;;;;;;;83.85;38.58;;;;;;;3.32;71.79;103397.34;5046096;28;20021;-57
2022/01/26 01:08:25;;;;;;;83.07;37.10;;;;;;;3.27;71.98;103400.66;5027499;28;20053;-57
2022/01/26 01:10:52;;;;;;;95.82;44.08;;;;;;;3.25;72.32;103399.72;5046019;28;20033;-56
2022/01/26 01:13:22;;;;;;;89.03;42.03;;;;;;;3.25;72.47;103402.31;5045861;28;20040;-57
2022/01/26 01:15:49;;;;;;;88.88;40.90;;;;;;;3.28;72.51;103404.16;5046072;28;20009;-56
2022/01/26 01:18:21;;;;;;;90.53;40.22;;;;;;;3.31;72.28;103395.59;5049813;28;20349;-57
2022/01/26 01:30:47;;;;;;;98.85;45.20;;;;;;;3.22;72.70;103378.75;5045429;28;20104;-58
2022/01/26 01:33:18;;;;;;;93.90;43.88;;;;;;;3.15;73.00;103376.75;5046078;28;20025;-57
2022/01/26 01:35:44;;;;;;;89.72;42.78;;;;;;;3.14;72.74;103378.47;5045577;28;20059;-57
2022/01/26 01:38:19;;;;;;;89.25;41.72;;;;;;;3.16;73.11;103369.00;5044690;28;20025;-56
2022/01/26 01:40:48;;;;;;;84.57;40.55;;;;;;;3.21;72.51;103369.16;5045581;28;20040;-55
2022/01/26 01:43:14;;;;;;;95.63;45.33;;;;;;;3.18;73.04;103368.16;5046085;28;20021;-58
2022/01/26 01:45:44;;;;;;;86.97;41.45;;;;;;;3.15;73.16;103354.19;5046658;28;20107;-56
2022/01/26 01:48:11;;;;;;;86.43;39.45;;;;;;;3.08;73.68;103353.91;5045507;28;20652;-59
2022/01/26 01:50:41;;;;;;;90.28;40.25;;;;;;;3.14;73.06;103357.63;5045266;28;20029;-56
2022/01/26 01:53:07;;;;;;;81.32;36.63;;;;;;;3.18;73.12;103348.19;5044993;28;20021;-56
2022/01/26 01:55:32;;;;;;;98.78;44.30;;;;;;;3.17;73.12;103338.63;5046067;28;20117;-58
2022/01/26 01:57:59;;;;;;;99.13;44.70;;;;;;;3.13;73.62;103340.22;5044164;28;20043;-58
2022/01/26 02:00:28;;;;;;;82.47;37.80;;;;;;;3.15;73.32;103342.88;5046030;28;20033;-57
2022/01/26 02:02:53;;;;;;;82.78;39.50;;;;;;;3.16;73.17;103337.72;5044240;28;20040;-58
2022/01/26 02:05:19;;;;;;;86.00;38.75;;;;;;;3.10;73.71;103345.28;5045030;28;20506;-58
2022/01/26 02:07:44;;;;;;;89.88;42.42;;;;;;;3.10;73.63;103350.50;5044746;28;20029;-57
2022/01/26 02:10:10;;;;;;;98.00;44.25;;;;;;;3.18;73.28;103342.09;5027956;28;20041;-58
2022/01/26 02:12:38;;;;;;;101.30;45.33;;;;;;;3.13;73.67;103349.75;5061626;22;20097;-57
2022/01/26 02:15:10;;;;;;;100.25;45.22;;;;;;;3.03;74.34;103344.19;5004465;28;20046;-57
2022/01/26 02:20:31;;;;;;;111.43;45.92;;;;;;;3.06;74.27;103334.69;5006196;28;20542;-57
2022/01/26 02:55:57;;;;;;;96.88;42.55;;;;;;;3.13;74.04;103328.91;5008983;28;20029;-57
2022/01/26 02:58:23;;;;;;;97.10;42.20;;;;;;;3.10;74.40;103323.59;5004754;28;20400;-58
2022/01/26 03:03:39;;;;;;;95.20;41.20;;;;;;;3.16;73.97;103295.13;5008902;28;20040;-57
2022/01/26 03:06:10;;;;;;;98.53;41.35;;;;;;;3.18;74.03;103301.28;5008807;28;20034;-56
2022/01/26 03:08:40;;;;;;;103.95;44.97;;;;;;;3.17;73.87;103294.31;5008612;28;20033;-57
2022/01/26 03:11:09;;;;;;;97.57;43.88;;;;;;;3.21;73.76;103290.09;5008388;28;20018;-57
2022/01/26 03:13:38;;;;;;;101.10;44.17;;;;;;;3.15;73.99;103286.44;5008630;28;20081;-59
2022/01/26 03:16:31;;;;;;;100.05;43.78;;;;;;;3.18;73.89;103274.34;5009469;28;20026;-57
2022/01/26 03:21:46;;;;;;;94.57;40.60;;;;;;;3.25;73.65;103269.41;5009236;28;20434;-57
2022/01/26 03:29:53;;;;;;;102.07;43.58;;;;;;;3.18;74.20;103295.19;5009401;28;20092;-57
2022/01/26 03:35:04;;;;;;;99.00;37.60;;;;;;;3.17;74.05;103286.50;5008350;28;20080;-53
2022/01/26 03:37:36;;;;;;;101.05;42.90;;;;;;;3.20;74.30;103275.31;5008007;28;20318;-55
2022/01/26 03:40:11;;;;;;;99.07;41.78;;;;;;;3.19;74.23;103271.78;5008480;28;20030;-59
2022/01/26 03:42:36;;;;;;;106.45;47.10;;;;;;;3.21;74.01;103275.34;5007793;28;20041;-57
2022/01/26 03:45:01;;;;;;;100.93;41.28;;;;;;;3.21;74.33;103275.34;5008557;28;20022;-56
2022/01/26 03:47:27;;;;;;;106.38;43.55;;;;;;;3.16;74.46;103282.09;5008150;28;20026;-57
2022/01/26 03:49:52;;;;;;;105.57;44.00;;;;;;;3.18;74.20;103270.03;5005913;28;20503;-59
2022/01/26 03:52:17;;;;;;;109.75;46.17;;;;;;;3.17;74.69;103273.47;5007945;28;20128;-57
2022/01/26 03:54:42;;;;;;;108.97;44.55;;;;;;;3.16;74.90;103283.00;5008036;28;20064;-56
2022/01/26 03:57:08;;;;;;;101.55;41.38;;;;;;;3.24;74.52;103303.25;5007581;28;20117;-56
2022/01/26 03:59:33;;;;;;;118.82;48.47;;;;;;;3.13;74.83;103308.06;5008456;28;20044;-58
2022/01/26 04:01:59;;;;;;;105.68;43.53;;;;;;;3.14;75.04;103305.53;5007393;28;20053;-58
2022/01/26 04:04:24;;;;;;;107.07;44.85;;;;;;;3.15;75.09;103307.28;5007044;28;20542;-58
2022/01/26 04:06:50;;;;;;;96.38;40.22;;;;;;;3.19;74.88;103308.28;5008294;28;20022;-57
2022/01/26 04:09:16;;;;;;;110.80;45.10;;;;;;;3.10;75.49;103318.38;5006903;28;20091;-58
2022/01/26 04:11:46;;;;;;;109.40;45.63;;;;;;;3.16;74.94;103319.47;5008542;28;20041;-58
2022/01/26 04:14:18;;;;;;;111.15;44.35;;;;;;;3.17;75.12;103325.59;5001136;28;20066;-56
2022/01/26 04:16:44;;;;;;;115.80;44.47;;;;;;;3.15;75.57;103327.25;4988897;28;20118;-57
2022/01/26 04:19:10;;;;;;;107.10;43.25;;;;;;;3.13;75.67;103321.09;4991270;28;20117;-56
2022/01/26 04:27:03;;;;;;;109.57;43.47;;;;;;;3.25;75.93;103344.13;5007374;28;20057;-57
2022/01/26 04:29:31;;;;;;;112.88;45.42;;;;;;;3.26;76.13;103330.25;5006614;28;20384;-58
2022/01/26 04:31:58;;;;;;;112.10;44.80;;;;;;;3.15;76.42;103304.69;5007421;28;20037;-58
2022/01/26 04:34:24;;;;;;;110.93;44.95;;;;;;;3.19;76.34;103286.56;5006828;28;20034;-58
2022/01/26 04:39:24;;;;;;;103.25;42.00;;;;;;;3.20;76.50;103280.50;5007379;28;20083;-57
2022/01/26 04:41:58;;;;;;;113.05;43.88;;;;;;;3.25;76.34;103268.56;5005755;28;20396;-59
2022/01/26 04:44:27;;;;;;;108.60;43.47;;;;;;;3.21;77.08;103264.03;5006540;28;20436;-58
2022/01/26 04:46:53;;;;;;;122.47;47.28;;;;;;;3.19;76.95;103265.72;5007306;28;20698;-59
2022/01/26 04:49:19;;;;;;;116.53;46.60;;;;;;;3.15;77.52;103280.34;5006284;28;20037;-55
2022/01/26 04:51:44;;;;;;;101.63;39.13;;;;;;;3.15;77.74;103290.75;5006037;28;20472;-56
2022/01/26 04:54:10;;;;;;;106.30;43.70;;;;;;;3.25;77.52;103286.78;5007746;28;20472;-55
2022/01/26 04:56:35;;;;;;;108.75;43.78;;;;;;;3.24;77.39;103279.78;5005926;28;20038;-57
2022/01/26 04:59:01;;;;;;;111.40;43.85;;;;;;;3.25;77.19;103290.25;5005841;28;20053;-57
2022/01/26 05:01:26;;;;;;;114.53;44.90;;;;;;;3.24;77.61;103291.09;5005565;28;20026;-58
2022/01/26 05:03:51;;;;;;;107.55;42.80;;;;;;;3.24;77.57;103291.09;5006333;28;20021;-56
2022/01/26 05:06:17;;;;;;;109.75;41.42;;;;;;;3.18;78.35;103282.16;5005700;28;20403;-55
2022/01/26 05:08:42;;;;;;;102.45;41.90;;;;;;;3.24;77.96;103277.19;4987837;28;20038;-56
2022/01/26 05:11:10;;;;;;;106.93;42.55;;;;;;;3.26;78.18;103268.59;5001238;28;20032;-57
2022/01/26 05:13:36;;;;;;;111.90;44.00;;;;;;;3.28;78.28;103269.53;5023268;28;20091;-57
2022/01/26 05:16:02;;;;;;;115.93;45.50;;;;;;;3.32;78.15;103269.66;5026080;28;20429;-57
2022/01/26 05:18:29;;;;;;;108.30;43.08;;;;;;;3.28;78.37;103260.81;5006291;28;20460;-58
2022/01/26 05:20:56;;;;;;;117.03;46.15;;;;;;;3.28;78.70;103260.81;5006656;28;20041;-57
2022/01/26 05:23:21;;;;;;;98.32;38.40;;;;;;;3.28;78.53;103256.50;5020056;28;20033;-58
2022/01/26 05:25:47;;;;;;;107.70;43.53;;;;;;;3.35;78.71;103261.94;5026097;28;20014;-56
2022/01/26 05:28:12;;;;;;;112.45;46.50;;;;;;;3.35;78.93;103256.72;5008406;28;20039;-58
2022/01/26 05:30:37;;;;;;;118.18;44.40;;;;;;;3.39;78.82;103249.06;5005618;28;20819;-57
2022/01/26 05:33:04;;;;;;;111.53;43.00;;;;;;;3.40;78.97;103249.94;4995014;28;20192;-57
2022/01/26 05:35:30;;;;;;;120.93;45.60;;;;;;;3.42;78.94;103248.28;4986514;28;20038;-59
2022/01/26 05:37:55;;;;;;;101.63;41.05;;;;;;;3.48;78.68;103248.50;4995122;28;20037;-56
2022/01/26 05:40:20;;;;;;;101.65;40.95;;;;;;;3.46;78.94;103250.16;5007335;28;20060;-52
2022/01/26 05:42:46;;;;;;;111.43;42.15;;;;;;;3.41;79.61;103270.84;5006325;28;20053;-61
2022/01/26 05:45:22;;;;;;;72.43;31.85;;;;;;;3.42;78.32;103279.56;5008236;28;20022;-59
2022/01/26 05:47:48;;;;;;;66.80;29.40;;;;;;;3.56;76.85;103269.63;5006124;28;20058;-57
2022/01/26 05:50:13;;;;;;;65.45;29.05;;;;;;;3.51;76.27;103263.34;5005941;28;20507;-57
2022/01/26 05:52:38;;;;;;;66.72;29.73;;;;;;;3.56;76.34;103276.56;5006517;28;20022;-59
2022/01/26 05:55:04;;;;;;;64.22;29.95;;;;;;;3.52;76.15;103276.44;5005354;28;20033;-59
2022/01/26 05:57:30;;;;;;;67.68;29.00;;;;;;;3.51;76.45;103279.00;5006010;28;20141;-58
2022/01/26 05:59:55;;;;;;;66.47;30.27;;;;;;;3.47;76.72;103288.44;5006380;28;20029;-58
2022/01/26 06:02:21;;;;;;;64.57;29.95;;;;;;;3.53;76.49;103298.19;5006493;28;20430;-58
2022/01/26 06:04:46;;;;;;;69.40;30.73;;;;;;;3.51;76.51;103299.84;5005255;28;20030;-57
2022/01/26 06:07:11;;;;;;;66.68;30.95;;;;;;;3.53;76.26;103306.03;5006728;28;20060;-56
2022/01/26 06:09:37;;;;;;;71.80;30.85;;;;;;;3.52;76.40;103297.31;5005996;28;20037;-56
2022/01/26 06:12:02;;;;;;;64.53;30.65;;;;;;;3.45;76.48;103299.63;5007754;28;20040;-57
2022/01/26 06:14:28;;;;;;;72.30;31.80;;;;;;;3.36;76.50;103284.56;5006692;28;20053;-58
2022/01/26 06:16:53;;;;;;;60.92;28.15;;;;;;;3.33;76.53;103281.84;5005666;28;20030;-58
2022/01/26 06:19:18;;;;;;;66.20;30.00;;;;;;;3.35;76.18;103278.47;5004009;28;20030;-57
2022/01/26 06:21:44;;;;;;;71.20;29.13;;;;;;;3.34;76.32;103253.22;5008114;28;20368;-57
2022/01/26 06:24:09;;;;;;;65.38;29.75;;;;;;;3.28;76.28;103259.09;5026114;28;20030;-55
2022/01/26 06:26:34;;;;;;;65.05;29.63;;;;;;;3.35;75.92;103256.72;5025262;28;20013;-55
2022/01/26 06:29:00;;;;;;;63.65;29.48;;;;;;;3.24;76.27;103254.63;5010375;28;20037;-58
2022/01/26 06:31:27;;;;;;;64.15;27.88;;;;;;;3.33;75.54;103268.81;5006044;28;20041;-60
2022/01/26 06:33:53;;;;;;;64.25;28.55;;;;;;;3.32;75.83;103264.44;5003140;28;20018;-58
2022/01/26 06:36:18;;;;;;;67.22;28.17;;;;;;;3.26;76.04;103271.22;5003777;28;20097;-56
2022/01/26 06:38:46;;;;;;;65.40;28.25;;;;;;;3.29;75.35;103263.47;5003943;28;20032;-56
2022/01/26 06:41:11;;;;;;;60.60;27.92;;;;;;;3.34;75.27;103265.38;5004824;28;20562;-58
2022/01/26 06:43:46;;;;;;;72.25;28.92;;;;;;;3.22;75.62;103268.44;5004068;28;20121;-60
2022/01/26 06:46:18;;;;;;;65.65;30.20;;;;;;;3.22;75.54;103261.50;5014554;28;20511;-57
2022/01/26 06:48:59;;;;;;;62.40;28.17;;;;;;;3.24;75.91;103265.03;5004824;28;20546;-57
2022/01/26 06:51:25;;;;;;;67.03;28.27;;;;;;;3.26;75.51;103288.56;5010295;28;20022;-56
2022/01/26 06:53:50;;;;;;;65.32;29.67;;;;;;;3.27;75.72;103291.22;5002173;28;20018;-56
2022/01/26 06:56:15;;;;;;;62.80;28.15;;;;;;;3.27;75.61;103278.19;5004429;28;20033;-59
2022/01/26 06:58:40;;;;;;;65.22;31.10;;;;;;;3.26;75.97;103289.47;5004376;28;20301;-57
2022/01/26 07:01:06;;;;;;;72.57;30.98;;;;;;;3.22;76.07;103290.16;5005564;28;20045;-56
2022/01/26 07:03:31;;;;;;;72.07;32.60;;;;;;;3.23;76.08;103289.34;5001048;28;20673;-59
2022/01/26 07:05:56;;;;;;;63.35;28.27;;;;;;;3.22;75.42;103284.94;4995934;28;20031;-58
2022/01/26 07:08:22;;;;;;;59.58;27.38;;;;;;;3.22;75.56;103294.50;5000390;28;20026;-58
2022/01/26 07:10:49;;;;;;;62.40;26.63;;;;;;;3.24;75.57;103298.03;5004939;28;20099;-58
2022/01/26 07:13:15;;;;;;;59.83;25.90;;;;;;;3.22;75.18;103292.75;5008009;28;20092;-58
2022/01/26 07:21:26;;;;;;;57.38;26.58;;;;;;;3.18;75.23;103310.81;5006856;28;20045;-59
2022/01/26 07:23:53;;;;;;;50.47;22.95;;;;;;;3.24;75.06;103324.97;5006529;28;20060;-60
2022/01/26 07:26:18;;;;;;;57.10;26.52;;;;;;;3.28;75.42;103328.56;5008144;28;20021;-57
2022/01/26 07:28:44;;;;;;;59.03;26.80;;;;;;;3.27;75.17;103332.91;5005350;28;20369;-56
2022/01/26 07:31:10;;;;;;;56.55;25.48;;;;;;;3.25;75.43;103318.94;5004785;28;20502;-56
2022/01/26 07:33:37;;;;;;;58.10;26.15;;;;;;;3.30;75.36;103329.53;5006313;28;20022;-59
2022/01/26 07:36:03;;;;;;;60.65;26.65;;;;;;;3.32;75.57;103324.38;5009189;28;20847;-58
2022/01/26 07:38:28;;;;;;;55.17;26.48;;;;;;;3.33;75.48;103321.81;5007622;28;20018;-55
2022/01/26 07:40:54;;;;;;;58.85;26.90;;;;;;;3.33;75.54;103318.31;5007596;28;20476;-57
2022/01/26 07:43:19;;;;;;;48.30;23.58;;;;;;;3.31;75.50;103313.06;4999081;28;20481;-54
2022/01/26 07:45:44;;;;;;;51.58;23.48;;;;;;;3.34;75.52;103317.50;4995639;28;20104;-57
2022/01/26 07:48:10;;;;;;;59.22;26.88;;;;;;;3.41;74.95;103316.91;4998320;28;20555;-56
2022/01/26 07:50:35;;;;;;;53.28;24.10;;;;;;;3.41;74.90;103315.16;5001300;28;20026;-55
2022/01/26 07:53:02;;;;;;;53.72;25.35;;;;;;;3.39;74.98;103308.13;5006130;28;20200;-54
2022/01/26 07:55:28;;;;;;;49.25;22.65;;;;;;;3.45;74.63;103317.88;5008266;28;20083;-57
2022/01/26 07:57:55;;;;;;;57.15;25.13;;;;;;;3.43;74.77;103316.94;5007268;28;20034;-58
2022/01/26 08:00:20;;;;;;;54.70;25.30;;;;;;;3.38;75.16;103314.19;5009241;28;20018;-59
2022/01/26 08:02:47;;;;;;;55.30;24.90;;;;;;;3.44;75.05;103308.28;5009654;28;20088;-57
2022/01/26 08:05:13;;;;;;;56.67;26.05;;;;;;;3.49;74.91;103317.19;5006201;28;20079;-60
2022/01/26 08:07:39;;;;;;;53.45;25.60;;;;;;;3.52;74.95;103318.16;5005029;28;20305;-57
2022/01/26 08:10:07;;;;;;;53.45;25.08;;;;;;;3.56;74.82;103308.75;5006150;28;20180;-55
2022/01/26 08:12:32;;;;;;;55.25;25.80;;;;;;;3.57;74.92;103304.38;4995979;28;20107;-56
2022/01/26 08:14:58;;;;;;;54.65;25.52;;;;;;;3.62;74.94;103303.75;5002495;28;20093;-61
2022/01/26 08:17:23;;;;;;;55.22;25.13;;;;;;;3.60;75.10;103299.28;5006602;28;20022;-61
2022/01/26 08:19:54;;;;;;;47.10;22.27;;;;;;;3.60;75.06;103300.19;5020139;28;20029;-60
2022/01/26 08:22:20;;;;;;;54.53;23.40;;;;;;;3.60;75.11;103304.50;5009249;28;20546;-60
2022/01/26 08:24:46;;;;;;;51.70;22.67;;;;;;;3.64;75.25;103306.38;5004801;28;20030;-61
2022/01/26 08:27:14;;;;;;;54.00;23.45;;;;;;;3.65;75.29;103301.22;5007198;28;20104;-60
2022/01/26 08:29:43;;;;;;;52.40;24.13;;;;;;;3.68;75.34;103300.47;5006871;28;20034;-60
2022/01/26 08:32:09;;;;;;;52.75;22.98;;;;;;;3.71;75.25;103292.75;5006278;28;20495;-62
2022/01/26 08:34:34;;;;;;;55.63;24.90;;;;;;;3.68;75.57;103313.50;5007081;28;20438;-59
2022/01/26 08:37:00;;;;;;;52.33;24.92;;;;;;;3.71;75.33;103310.09;5006397;28;20030;-60
2022/01/26 08:39:25;;;;;;;46.83;20.65;;;;;;;3.70;75.44;103306.59;5007828;28;20564;-57
2022/01/26 08:41:51;;;;;;;51.67;21.33;;;;;;;3.67;75.63;103311.69;5005774;28;20101;-61
2022/01/26 08:44:16;;;;;;;52.15;21.10;;;;;;;3.66;76.24;103308.22;5007074;28;20022;-61
2022/01/26 08:46:42;;;;;;;52.95;19.55;;;;;;;3.61;76.91;103312.38;5004066;28;20033;-60
2022/01/26 08:49:07;;;;;;;47.70;20.67;;;;;;;3.66;76.71;103317.75;4992423;28;20503;-59
2022/01/26 08:51:33;;;;;;;44.38;19.42;;;;;;;3.73;76.50;103316.28;4986877;28;20482;-60
2022/01/26 08:53:58;;;;;;;54.33;22.90;;;;;;;3.72;76.48;103312.75;5004949;28;20037;-58
2022/01/26 08:56:25;;;;;;;52.35;21.33;;;;;;;3.75;76.56;103311.97;5005986;28;20030;-59
2022/01/26 08:58:50;;;;;;;50.88;20.90;;;;;;;3.77;76.40;103313.78;5006354;28;20049;-60
2022/01/26 09:01:15;;;;;;;53.38;22.38;;;;;;;3.79;76.53;103306.91;4995836;28;20081;-56
2022/01/26 09:03:41;;;;;;;60.10;22.40;;;;;;;3.77;76.68;103310.31;4986767;28;20022;-57
2022/01/26 09:06:07;;;;;;;57.75;21.77;;;;;;;3.79;76.86;103306.91;4998055;28;20041;-60
2022/01/26 09:08:33;;;;;;;50.20;22.90;;;;;;;3.81;77.06;103300.88;5006461;28;20087;-61
2022/01/26 09:11:01;;;;;;;64.88;22.40;;;;;;;3.87;76.76;103308.91;5003445;28;20076;-61
2022/01/26 09:13:32;;;;;;;51.70;20.10;;;;;;;3.87;76.96;103312.41;5000036;28;20050;-61
2022/01/26 09:15:58;;;;;;;49.08;20.80;;;;;;;3.90;76.78;103309.00;4998195;28;20384;-60
2022/01/26 09:19:04;;;;;;;53.05;24.02;;;;;;;3.87;76.89;103298.47;4994535;28;20030;-61
2022/01/26 09:21:17;;;;;;;56.33;21.55;;;;;;;3.97;76.71;103294.47;4994862;28;20041;-62
2022/01/26 09:23:42;;;;;;;58.13;22.55;;;;;;;4.07;76.11;103306.09;4994620;28;20026;-59
2022/01/26 09:26:07;;;;;;;48.67;21.58;;;;;;;4.07;75.38;103300.88;4993760;28;20036;-60
2022/01/26 09:28:33;;;;;;;51.13;22.00;;;;;;;4.12;75.22;103308.00;5005414;28;20022;-58
2022/01/26 09:30:58;;;;;;;53.20;22.95;;;;;;;4.20;74.96;103317.81;5005770;28;20068;-57
2022/01/26 09:33:23;;;;;;;46.03;20.80;;;;;;;4.17;74.77;103300.34;5002995;28;20053;-59
2022/01/26 09:35:49;;;;;;;44.67;22.00;;;;;;;4.27;74.65;103301.50;5001211;28;20456;-59
2022/01/26 09:38:15;;;;;;;47.83;21.15;;;;;;;4.30;74.52;103294.69;4995998;28;20056;-61
2022/01/26 09:40:40;;;;;;;47.40;20.73;;;;;;;4.38;73.97;103291.41;4996730;28;20457;-58
2022/01/26 09:43:06;;;;;;;52.28;22.58;;;;;;;4.34;74.11;103294.78;5003303;28;20022;-56
2022/01/26 09:45:34;;;;;;;40.88;20.33;;;;;;;4.33;74.24;103295.63;5006664;28;20049;-57
2022/01/26 09:48:03;;;;;;;41.77;19.53;;;;;;;4.40;73.94;103319.34;5004704;28;20021;-57
2022/01/26 09:50:29;;;;;;;46.03;20.27;;;;;;;4.45;73.47;103324.72;5001492;28;20280;-58
2022/01/26 09:52:56;;;;;;;54.28;20.92;;;;;;;4.47;73.62;103316.94;5003455;28;20018;-59
2022/01/26 09:55:21;;;;;;;43.22;21.10;;;;;;;4.57;73.34;103307.69;4996825;28;20032;-57
2022/01/26 09:57:47;;;;;;;42.83;19.60;;;;;;;4.52;73.53;103297.09;5003968;28;20029;-59
2022/01/26 10:00:13;;;;;;;36.08;19.27;;;;;;;4.59;72.72;103300.75;5001666;28;20428;-58
2022/01/26 10:02:39;;;;;;;37.53;19.48;;;;;;;4.68;72.71;103291.50;5001691;28;20034;-57
2022/01/26 10:05:10;;;;;;;43.40;20.33;;;;;;;4.73;72.85;103289.00;5004305;28;20109;-58
2022/01/26 10:15:43;;;;;;;45.60;19.48;;;;;;;4.92;71.97;103302.63;5005265;28;20064;-59
2022/01/26 10:18:12;;;;;;;41.58;18.35;;;;;;;4.97;71.79;103315.84;5003427;28;20022;-58
2022/01/26 10:20:43;;;;;;;30.67;17.60;;;;;;;4.95;71.74;103300.09;5003758;28;20496;-59
2022/01/26 10:23:13;;;;;;;40.95;19.77;;;;;;;4.94;72.12;103306.19;5001228;28;20536;-59
2022/01/26 10:25:40;;;;;;;37.28;18.38;;;;;;;5.01;71.78;103321.19;5005389;28;20033;-58
2022/01/26 10:28:09;;;;;;;38.72;17.95;;;;;;;5.02;71.79;103312.50;5004652;28;20065;-57
2022/01/26 10:30:34;;;;;;;39.65;18.02;;;;;;;5.08;71.84;103316.16;5004990;28;20323;-59
2022/01/26 10:33:07;;;;;;;40.83;20.83;;;;;;;5.10;71.88;103311.84;5001956;28;20063;-59
2022/01/26 10:35:32;;;;;;;41.50;20.90;;;;;;;5.10;71.91;103317.97;4999528;28;20034;-60
2022/01/26 10:37:58;;;;;;;38.58;18.73;;;;;;;5.21;71.63;103315.63;4993232;28;20030;-57
2022/01/26 10:40:26;;;;;;;33.85;17.80;;;;;;;5.21;71.56;103310.41;4994258;28;20037;-60
2022/01/26 10:42:59;;;;;;;35.43;19.20;;;;;;;5.29;71.21;103310.63;5004387;28;20049;-58
2022/01/26 10:45:46;;;;;;;33.55;18.20;;;;;;;5.38;70.91;103325.69;4999238;28;20030;-59
2022/01/26 10:48:21;;;;;;;32.10;17.30;;;;;;;5.50;70.68;103305.13;5000005;28;20034;-60
2022/01/26 10:51:19;;;;;;;28.85;16.80;;;;;;;5.57;70.64;103306.19;5009981;28;20561;-59
2022/01/26 10:53:38;;;;;;;35.22;17.30;;;;;;;5.59;70.59;103298.34;5008240;28;20029;-57
2022/01/26 10:56:04;;;;;;;34.63;16.95;;;;;;;5.63;70.67;103295.00;5008431;28;20010;-56
2022/01/26 10:58:30;;;;;;;36.25;17.52;;;;;;;5.65;70.15;103295.91;5006706;28;20022;-55
2022/01/26 11:00:55;;;;;;;41.85;17.20;;;;;;;5.75;69.85;103287.44;5007266;28;20079;-55
2022/01/26 11:03:21;;;;;;;30.45;15.95;;;;;;;5.81;69.53;103297.22;5007164;28;20380;-54
2022/01/26 11:05:46;;;;;;;27.08;15.48;;;;;;;5.86;69.52;103289.47;5007282;28;20489;-54
2022/01/26 11:08:12;;;;;;;25.02;15.30;;;;;;;5.84;69.33;103278.09;5007775;28;20423;-56
2022/01/26 11:10:39;;;;;;;30.33;16.50;;;;;;;5.83;69.55;103277.19;4990287;28;20391;-55
2022/01/26 11:13:05;;;;;;;26.88;15.30;;;;;;;5.90;69.27;103278.25;5006398;28;20137;-53
2022/01/26 11:15:31;;;;;;;31.92;15.32;;;;;;;5.94;69.04;103270.47;5007752;28;20542;-55
2022/01/26 11:18:10;;;;;;;32.72;15.32;;;;;;;6.05;68.97;103265.56;5008255;28;20034;-57
2022/01/26 11:20:48;;;;;;;32.65;15.10;;;;;;;6.09;68.77;103273.47;5007529;28;20034;-56
2022/01/26 11:23:13;;;;;;;25.50;14.40;;;;;;;6.13;68.40;103281.47;5007073;28;20026;-56
2022/01/26 11:25:45;;;;;;;26.30;13.82;;;;;;;6.09;68.42;103270.88;5006730;28;20017;-57
2022/01/26 11:28:15;;;;;;;26.95;14.63;;;;;;;6.10;68.76;103259.53;5008463;28;20032;-55
2022/01/26 11:30:41;;;;;;;22.67;13.68;;;;;;;6.05;68.69;103273.41;5007761;28;20034;-56
2022/01/26 11:33:21;;;;;;;24.58;14.00;;;;;;;6.00;69.19;103269.78;5007603;28;20029;-55
2022/01/26 11:35:50;;;;;;;26.48;13.50;;;;;;;6.11;69.04;103271.81;5006914;28;20037;-56
2022/01/26 11:39:04;;;;;;;28.98;13.75;;;;;;;6.18;68.33;103253.63;5006740;28;20117;-55
2022/01/26 11:47:08;;;;;;;30.05;15.15;;;;;;;6.20;68.64;103243.19;5007791;28;20045;-57
2022/01/26 11:49:35;;;;;;;26.80;13.55;;;;;;;6.33;68.51;103249.63;5006692;28;20472;-57
2022/01/26 11:52:00;;;;;;;29.30;13.65;;;;;;;6.30;68.17;103247.78;5007059;28;20088;-56
2022/01/26 11:54:28;;;;;;;22.95;12.85;;;;;;;6.42;68.11;103254.19;4999290;28;20018;-56
2022/01/26 11:56:56;;;;;;;25.55;13.65;;;;;;;6.55;67.39;103255.34;4980028;28;20449;-57
2022/01/26 11:59:24;;;;;;;24.67;13.63;;;;;;;6.57;67.25;103238.78;4985519;28;20022;-56
2022/01/26 12:01:57;;;;;;;25.08;13.27;;;;;;;6.53;67.56;103238.72;4983649;28;20140;-55
2022/01/26 12:04:24;;;;;;;26.05;13.63;;;;;;;6.51;67.96;103248.25;4984447;28;20432;-56
2022/01/26 12:06:57;;;;;;;24.08;12.82;;;;;;;6.49;68.49;103245.63;4985561;28;20109;-58
2022/01/26 12:09:23;;;;;;;28.60;13.32;;;;;;;6.63;68.15;103250.28;4984864;28;20029;-57
2022/01/26 12:11:55;;;;;;;32.67;14.80;;;;;;;6.59;68.59;103253.69;4982808;28;20088;-57
2022/01/26 12:14:22;;;;;;;25.80;14.02;;;;;;;6.68;68.19;103259.09;4983570;28;20038;-59
2022/01/26 12:16:51;;;;;;;29.30;13.82;;;;;;;6.60;67.91;103251.09;4983070;28;20830;-56
2022/01/26 12:33:12;;;;;;;20.02;12.13;;;;;;;6.39;68.57;103233.16;4982252;28;20060;-57
2022/01/26 12:38:33;;;;;;;21.77;12.65;;;;;;;6.50;68.99;103221.19;4983745;28;20048;-57
2022/01/26 12:41:25;;;;;;;21.83;11.95;;;;;;;6.49;69.05;103232.50;4983883;28;20022;-59
2022/01/26 12:43:55;;;;;;;33.42;13.93;;;;;;;6.47;69.25;103228.97;4982845;28;20095;-59
2022/01/26 12:46:23;;;;;;;20.67;10.73;;;;;;;6.51;69.21;103228.22;5002472;28;20138;-56
2022/01/26 12:48:54;;;;;;;26.10;12.75;;;;;;;6.45;69.24;103226.31;5003376;28;20497;-56
2022/01/26 12:51:20;;;;;;;26.98;12.23;;;;;;;6.53;68.94;103213.38;5005622;28;20476;-57
2022/01/26 12:53:52;;;;;;;22.35;12.20;;;;;;;6.50;69.53;103221.19;5003096;28;20032;-61
2022/01/26 12:56:17;;;;;;;23.98;12.10;;;;;;;6.49;69.28;103213.28;5006651;28;20111;-57
2022/01/26 12:58:44;;;;;;;26.48;12.60;;;;;;;6.53;68.86;103213.38;5008367;28;20067;-62
2022/01/26 13:01:11;;;;;;;27.90;12.60;;;;;;;6.57;69.45;103225.69;5006042;28;20365;-56
2022/01/26 13:03:41;;;;;;;25.70;12.90;;;;;;;6.59;69.65;103215.25;5002437;28;20030;-59
2022/01/26 13:06:21;;;;;;;20.02;11.80;;;;;;;6.57;69.85;103209.97;5003853;28;20045;-59
2022/01/26 13:08:52;;;;;;;25.92;12.93;;;;;;;6.60;69.47;103198.69;4994089;28;20377;-58
2022/01/26 13:11:31;;;;;;;28.50;13.75;;;;;;;6.64;69.64;103202.25;5006220;28;20105;-58
2022/01/26 13:14:17;;;;;;;28.45;13.80;;;;;;;6.67;69.78;103202.31;5004220;28;20560;-57
2022/01/26 13:17:10;;;;;;;27.02;13.88;;;;;;;6.69;69.58;103201.47;5005982;28;20120;-57
2022/01/26 13:22:54;;;;;;;27.80;13.10;;;;;;;6.74;69.76;103201.59;4998643;28;20077;-58
2022/01/26 13:38:31;;;;;;;27.02;12.43;;;;;;;6.47;71.03;103183.56;5005778;28;20036;-59
2022/01/26 14:02:02;;;;;;;30.08;14.00;;;;;;;6.35;71.60;103173.72;5007923;28;20203;-58